WZZ5EQ EPMO-LIEA
Flight info
| Callsign | WZZ5EQ |
|---|---|
| Flight time | N/A |
| Altitude | 36000 |
| Route | EVINA4J EVINA DCT LIGDI DCT SKARY DCT MAREG DCT NIGSI DCT GBG DCT LAPNA/N0448F350 DCT MAMAR DCT BATOX DCT ROMPO/N0361F190 L5 MINKA MINKA1Y |
| Aircraft | A21N/M-SDE3FGHIRWY/LB1 |
Departure
| Time | 2026-05-07 12:19 |
|---|---|
| Airport | Warsaw Modlin Airport (EPMO) |
Arrival
| Time | N/A |
|---|---|
| Airport | Alghero-Fertilia Airport (LIEA) |
| Time | Latitude | Longitude | Altitude | Speed | Heading |
|---|---|---|---|---|---|
| 2026-05-07 12:17 | 52.44985 | 20.67067 | 337 ft | 7 kts | 16° |
| 2026-05-07 12:17 | 52.45042 | 20.67063 | 336 ft | 9 kts | 352° |
| 2026-05-07 12:18 | 52.45116 | 20.67046 | 334 ft | 11 kts | 352° |
| 2026-05-07 12:18 | 52.45203 | 20.67018 | 333 ft | 13 kts | 342° |
| 2026-05-07 12:18 | 52.45280 | 20.66953 | 331 ft | 11 kts | 298° |
| 2026-05-07 12:18 | 52.45277 | 20.66830 | 331 ft | 14 kts | 262° |
| 2026-05-07 12:19 | 52.45230 | 20.66332 | 333 ft | 79 kts | 261° |
| 2026-05-07 12:19 | 52.45114 | 20.65101 | 335 ft | 139 kts | 262° |
| 2026-05-07 12:19 | 52.44941 | 20.63284 | 503 ft | 173 kts | 262° |
| 2026-05-07 12:19 | 52.44739 | 20.61371 | 1145 ft | 173 kts | 262° |
| 2026-05-07 12:20 | 52.44526 | 20.59431 | 1841 ft | 173 kts | 263° |
| 2026-05-07 12:20 | 52.44336 | 20.57513 | 2458 ft | 174 kts | 264° |
| 2026-05-07 12:20 | 52.44150 | 20.55577 | 3068 ft | 175 kts | 262° |
| 2026-05-07 12:20 | 52.43657 | 20.53761 | 3625 ft | 182 kts | 230° |
| 2026-05-07 12:21 | 52.42526 | 20.52739 | 4015 ft | 200 kts | 191° |
| 2026-05-07 12:21 | 52.41071 | 20.52812 | 4417 ft | 216 kts | 177° |
| 2026-05-07 12:21 | 52.39520 | 20.53000 | 4776 ft | 234 kts | 178° |
| 2026-05-07 12:21 | 52.37825 | 20.53174 | 5123 ft | 254 kts | 179° |
| 2026-05-07 12:22 | 52.36057 | 20.53347 | 5708 ft | 264 kts | 179° |
| 2026-05-07 12:22 | 52.34198 | 20.53528 | 6348 ft | 272 kts | 179° |
| 2026-05-07 12:22 | 52.32305 | 20.53710 | 7134 ft | 274 kts | 179° |
| 2026-05-07 12:22 | 52.30430 | 20.53890 | 7942 ft | 275 kts | 179° |
| 2026-05-07 12:23 | 52.28520 | 20.54073 | 8733 ft | 276 kts | 180° |
| 2026-05-07 12:23 | 52.26600 | 20.54255 | 9475 ft | 278 kts | 180° |
| 2026-05-07 12:23 | 52.24680 | 20.54436 | 10196 ft | 280 kts | 180° |
| 2026-05-07 12:23 | 52.22707 | 20.54620 | 10672 ft | 292 kts | 180° |
| 2026-05-07 12:24 | 52.20648 | 20.54810 | 11071 ft | 305 kts | 180° |
| 2026-05-07 12:24 | 52.18520 | 20.55011 | 11711 ft | 308 kts | 180° |
| 2026-05-07 12:24 | 52.16387 | 20.55215 | 12406 ft | 309 kts | 180° |
| 2026-05-07 12:24 | 52.14261 | 20.55417 | 13073 ft | 311 kts | 180° |
| 2026-05-07 12:25 | 52.12096 | 20.55622 | 13725 ft | 313 kts | 180° |
| 2026-05-07 12:25 | 52.09929 | 20.55826 | 14341 ft | 315 kts | 180° |
| 2026-05-07 12:25 | 52.07751 | 20.56031 | 14938 ft | 317 kts | 180° |
| 2026-05-07 12:25 | 52.05547 | 20.56237 | 15518 ft | 320 kts | 180° |
| 2026-05-07 12:26 | 52.03308 | 20.56446 | 16108 ft | 323 kts | 180° |
| 2026-05-07 12:26 | 52.01082 | 20.56654 | 16657 ft | 326 kts | 179° |
| 2026-05-07 12:26 | 51.98791 | 20.56869 | 17202 ft | 328 kts | 179° |
| 2026-05-07 12:26 | 51.96541 | 20.56995 | 17714 ft | 330 kts | 184° |
| 2026-05-07 12:27 | 51.94246 | 20.56569 | 18252 ft | 330 kts | 193° |
| 2026-05-07 12:27 | 51.92051 | 20.55574 | 18765 ft | 331 kts | 200° |
| 2026-05-07 12:27 | 51.89888 | 20.54334 | 19302 ft | 333 kts | 201° |
| 2026-05-07 12:27 | 51.87707 | 20.53054 | 19808 ft | 335 kts | 202° |
| 2026-05-07 12:28 | 51.85508 | 20.51759 | 20308 ft | 336 kts | 201° |
| 2026-05-07 12:28 | 51.83340 | 20.50488 | 20829 ft | 337 kts | 201° |
| 2026-05-07 12:28 | 51.81127 | 20.49196 | 21329 ft | 339 kts | 201° |
| 2026-05-07 12:28 | 51.78922 | 20.47910 | 21817 ft | 340 kts | 202° |
| 2026-05-07 12:29 | 51.76698 | 20.46617 | 22287 ft | 342 kts | 202° |
| 2026-05-07 12:29 | 51.74462 | 20.45317 | 22747 ft | 343 kts | 202° |
| 2026-05-07 12:29 | 51.72210 | 20.44009 | 23186 ft | 345 kts | 202° |
| 2026-05-07 12:29 | 51.69965 | 20.42708 | 23621 ft | 346 kts | 202° |
| 2026-05-07 12:30 | 51.67697 | 20.41428 | 24062 ft | 348 kts | 200° |
| 2026-05-07 12:30 | 51.65348 | 20.40406 | 24511 ft | 350 kts | 195° |
| 2026-05-07 12:30 | 51.62967 | 20.39716 | 24949 ft | 353 kts | 191° |
| 2026-05-07 12:30 | 51.60550 | 20.39300 | 25367 ft | 354 kts | 189° |
| 2026-05-07 12:31 | 51.58078 | 20.38918 | 25779 ft | 356 kts | 189° |
| 2026-05-07 12:31 | 51.55606 | 20.38542 | 26195 ft | 357 kts | 189° |
| 2026-05-07 12:31 | 51.53155 | 20.38170 | 26583 ft | 358 kts | 189° |
| 2026-05-07 12:31 | 51.50692 | 20.37795 | 26921 ft | 360 kts | 189° |
| 2026-05-07 12:32 | 51.48201 | 20.37417 | 27282 ft | 361 kts | 188° |
| 2026-05-07 12:32 | 51.45691 | 20.37039 | 27634 ft | 363 kts | 189° |
| 2026-05-07 12:32 | 51.43163 | 20.36659 | 27966 ft | 365 kts | 189° |
| 2026-05-07 12:32 | 51.40651 | 20.36061 | 28278 ft | 365 kts | 193° |
| 2026-05-07 12:33 | 51.35834 | 20.33666 | 28985 ft | 365 kts | 204° |
| 2026-05-07 12:33 | 51.33523 | 20.31975 | 29312 ft | 366 kts | 205° |
| 2026-05-07 12:33 | 51.31238 | 20.30254 | 29651 ft | 368 kts | 205° |
| 2026-05-07 12:34 | 51.28940 | 20.28517 | 29978 ft | 368 kts | 205° |
| 2026-05-07 12:34 | 51.26640 | 20.26778 | 30319 ft | 369 kts | 205° |
| 2026-05-07 12:34 | 51.24304 | 20.25016 | 30626 ft | 371 kts | 205° |
| 2026-05-07 12:34 | 51.21977 | 20.23259 | 30909 ft | 373 kts | 205° |
| 2026-05-07 12:35 | 51.19646 | 20.21503 | 31181 ft | 374 kts | 205° |
| 2026-05-07 12:35 | 51.17271 | 20.19711 | 31446 ft | 376 kts | 205° |
| 2026-05-07 12:35 | 51.14905 | 20.17931 | 31687 ft | 378 kts | 205° |
| 2026-05-07 12:35 | 51.12532 | 20.16147 | 31907 ft | 381 kts | 205° |
| 2026-05-07 12:36 | 51.10164 | 20.14368 | 32151 ft | 382 kts | 205° |
| 2026-05-07 12:36 | 51.07751 | 20.12557 | 32384 ft | 384 kts | 205° |
| 2026-05-07 12:36 | 51.05327 | 20.10740 | 32582 ft | 387 kts | 206° |
| 2026-05-07 12:36 | 51.02884 | 20.08911 | 32792 ft | 389 kts | 205° |
| 2026-05-07 12:37 | 51.00445 | 20.07086 | 33005 ft | 391 kts | 206° |
| 2026-05-07 12:37 | 50.97983 | 20.05246 | 33305 ft | 391 kts | 205° |
| 2026-05-07 12:37 | 50.95561 | 20.03441 | 33631 ft | 390 kts | 206° |
| 2026-05-07 12:37 | 50.93108 | 20.01613 | 33945 ft | 389 kts | 205° |
| 2026-05-07 12:38 | 50.90667 | 19.99798 | 34202 ft | 389 kts | 206° |
| 2026-05-07 12:38 | 50.88197 | 19.97961 | 34465 ft | 390 kts | 206° |
| 2026-05-07 12:38 | 50.85770 | 19.96159 | 34706 ft | 390 kts | 206° |
| 2026-05-07 12:38 | 50.83299 | 19.94326 | 34897 ft | 391 kts | 206° |
| 2026-05-07 12:39 | 50.80858 | 19.92515 | 35095 ft | 392 kts | 206° |
| 2026-05-07 12:39 | 50.78367 | 19.90673 | 35247 ft | 393 kts | 206° |
| 2026-05-07 12:39 | 50.75893 | 19.88844 | 35397 ft | 394 kts | 206° |
| 2026-05-07 12:39 | 50.73436 | 19.87030 | 35570 ft | 395 kts | 206° |
| 2026-05-07 12:40 | 50.70937 | 19.85186 | 35713 ft | 396 kts | 206° |
| 2026-05-07 12:40 | 50.68466 | 19.83368 | 35843 ft | 397 kts | 206° |
| 2026-05-07 12:40 | 50.63461 | 19.79686 | 35937 ft | 400 kts | 206° |
| 2026-05-07 12:41 | 50.58426 | 19.75993 | 35934 ft | 399 kts | 206° |
| 2026-05-07 12:41 | 50.53422 | 19.72332 | 35937 ft | 399 kts | 206° |
| 2026-05-07 12:42 | 50.48431 | 19.68689 | 35935 ft | 399 kts | 206° |
| 2026-05-07 12:42 | 50.43409 | 19.65033 | 35938 ft | 399 kts | 206° |
| 2026-05-07 12:43 | 50.38377 | 19.61377 | 35938 ft | 399 kts | 206° |
| 2026-05-07 12:43 | 50.33350 | 19.57732 | 35942 ft | 397 kts | 206° |
| 2026-05-07 12:44 | 50.28367 | 19.54161 | 35938 ft | 398 kts | 204° |
| 2026-05-07 12:44 | 50.23307 | 19.50697 | 35954 ft | 398 kts | 205° |
| 2026-05-07 12:45 | 50.18252 | 19.47252 | 35952 ft | 399 kts | 205° |
| 2026-05-07 12:45 | 50.13187 | 19.43798 | 35944 ft | 398 kts | 205° |
| 2026-05-07 12:46 | 50.08115 | 19.40346 | 35945 ft | 398 kts | 205° |
| 2026-05-07 12:46 | 50.03083 | 19.36927 | 35943 ft | 397 kts | 205° |
| 2026-05-07 12:47 | 49.98018 | 19.33491 | 35949 ft | 398 kts | 204° |
| 2026-05-07 12:47 | 49.92946 | 19.30063 | 35931 ft | 397 kts | 204° |
| 2026-05-07 12:48 | 49.87920 | 19.26671 | 35931 ft | 397 kts | 205° |
| 2026-05-07 12:48 | 49.82882 | 19.23279 | 35935 ft | 396 kts | 204° |
| 2026-05-07 12:49 | 49.77801 | 19.19868 | 35940 ft | 397 kts | 204° |
| 2026-05-07 12:49 | 49.72750 | 19.16482 | 35946 ft | 397 kts | 204° |
| 2026-05-07 12:50 | 49.67724 | 19.13121 | 35951 ft | 397 kts | 204° |
| 2026-05-07 12:50 | 49.62677 | 19.09755 | 35952 ft | 396 kts | 204° |
| 2026-05-07 12:51 | 49.57653 | 19.06413 | 35953 ft | 395 kts | 204° |
| 2026-05-07 12:51 | 49.52587 | 19.03039 | 35957 ft | 395 kts | 206° |
| 2026-05-07 12:52 | 49.47752 | 18.99097 | 35953 ft | 395 kts | 212° |
| 2026-05-07 12:52 | 49.43263 | 18.94316 | 35957 ft | 394 kts | 218° |
| 2026-05-07 12:53 | 49.39164 | 18.88730 | 35965 ft | 394 kts | 224° |
| 2026-05-07 12:53 | 49.35431 | 18.82635 | 35975 ft | 395 kts | 226° |
| 2026-05-07 12:54 | 49.31674 | 18.76457 | 35979 ft | 395 kts | 226° |
| 2026-05-07 12:54 | 49.27949 | 18.70326 | 35974 ft | 395 kts | 226° |
| 2026-05-07 12:55 | 49.24220 | 18.64201 | 35975 ft | 395 kts | 226° |
| 2026-05-07 12:55 | 49.20492 | 18.58081 | 35979 ft | 395 kts | 226° |
| 2026-05-07 12:56 | 49.16743 | 18.51939 | 35974 ft | 396 kts | 226° |
| 2026-05-07 12:56 | 49.12993 | 18.45816 | 35986 ft | 395 kts | 226° |
| 2026-05-07 12:57 | 49.09254 | 18.39721 | 35975 ft | 395 kts | 226° |
| 2026-05-07 12:57 | 49.05500 | 18.33619 | 35979 ft | 395 kts | 225° |
| 2026-05-07 12:58 | 49.01748 | 18.27533 | 35956 ft | 396 kts | 225° |
| 2026-05-07 12:58 | 48.98002 | 18.21470 | 35952 ft | 396 kts | 225° |
| 2026-05-07 12:59 | 48.94227 | 18.15376 | 35967 ft | 396 kts | 225° |
| 2026-05-07 12:59 | 48.90453 | 18.09296 | 35961 ft | 395 kts | 225° |
| 2026-05-07 13:00 | 48.86691 | 18.03253 | 35977 ft | 395 kts | 225° |
| 2026-05-07 13:00 | 48.82923 | 17.97211 | 35970 ft | 396 kts | 225° |
| 2026-05-07 13:01 | 48.79139 | 17.91160 | 35972 ft | 396 kts | 225° |
| 2026-05-07 13:01 | 48.75355 | 17.85125 | 35937 ft | 396 kts | 225° |
| 2026-05-07 13:02 | 48.71559 | 17.79077 | 35953 ft | 396 kts | 224° |
| 2026-05-07 13:02 | 48.67761 | 17.73042 | 35965 ft | 396 kts | 224° |
| 2026-05-07 13:03 | 48.63976 | 17.67045 | 35994 ft | 398 kts | 225° |
| 2026-05-07 13:03 | 48.60155 | 17.61001 | 35952 ft | 398 kts | 225° |
| 2026-05-07 13:04 | 48.56333 | 17.54980 | 35956 ft | 398 kts | 224° |
| 2026-05-07 13:04 | 48.52529 | 17.48996 | 35940 ft | 398 kts | 225° |
| 2026-05-07 13:05 | 48.48698 | 17.42983 | 35965 ft | 398 kts | 225° |
| 2026-05-07 13:05 | 48.44865 | 17.36982 | 35959 ft | 399 kts | 225° |
| 2026-05-07 13:06 | 48.41000 | 17.30946 | 35944 ft | 398 kts | 224° |
| 2026-05-07 13:06 | 48.37183 | 17.24993 | 35985 ft | 398 kts | 224° |
| 2026-05-07 13:07 | 48.33339 | 17.19014 | 35977 ft | 398 kts | 224° |
| 2026-05-07 13:07 | 48.29502 | 17.13058 | 35966 ft | 399 kts | 224° |
| 2026-05-07 13:08 | 48.25627 | 17.07068 | 35970 ft | 399 kts | 224° |
| 2026-05-07 13:08 | 48.21793 | 17.01144 | 35942 ft | 399 kts | 224° |
| 2026-05-07 13:09 | 48.17732 | 16.95496 | 35953 ft | 399 kts | 219° |
| 2026-05-07 13:09 | 48.13363 | 16.90369 | 35980 ft | 399 kts | 217° |
| 2026-05-07 13:10 | 48.08993 | 16.85305 | 35963 ft | 399 kts | 217° |
| 2026-05-07 13:10 | 48.04613 | 16.80245 | 35959 ft | 399 kts | 217° |
| 2026-05-07 13:11 | 48.00236 | 16.75211 | 35982 ft | 399 kts | 217° |
| 2026-05-07 13:11 | 47.95818 | 16.70139 | 35975 ft | 400 kts | 217° |
| 2026-05-07 13:12 | 47.91399 | 16.65076 | 35996 ft | 400 kts | 217° |
| 2026-05-07 13:12 | 47.87010 | 16.60065 | 35942 ft | 401 kts | 218° |
| 2026-05-07 13:13 | 47.82578 | 16.55014 | 35988 ft | 401 kts | 218° |
| 2026-05-07 13:13 | 47.78191 | 16.50026 | 35975 ft | 400 kts | 218° |
| 2026-05-07 13:14 | 47.73750 | 16.44985 | 35955 ft | 400 kts | 218° |
| 2026-05-07 13:14 | 47.69335 | 16.39986 | 35960 ft | 400 kts | 218° |
| 2026-05-07 13:15 | 47.64939 | 16.35021 | 35983 ft | 400 kts | 218° |
| 2026-05-07 13:15 | 47.60534 | 16.30056 | 35953 ft | 399 kts | 217° |
| 2026-05-07 13:16 | 47.56099 | 16.25067 | 35968 ft | 400 kts | 217° |
| 2026-05-07 13:16 | 47.51673 | 16.20096 | 36163 ft | 400 kts | 217° |
| 2026-05-07 13:17 | 47.49490 | 16.17653 | 35798 ft | 397 kts | 217° |
| 2026-05-07 13:17 | 47.47272 | 16.15174 | 35881 ft | 398 kts | 217° |
| 2026-05-07 13:17 | 47.42828 | 16.10249 | 35940 ft | 400 kts | 216° |
| 2026-05-07 13:18 | 47.38173 | 16.05877 | 35952 ft | 400 kts | 211° |
| 2026-05-07 13:18 | 47.33204 | 16.02197 | 35923 ft | 402 kts | 206° |
| 2026-05-07 13:19 | 47.27953 | 15.99255 | 35978 ft | 404 kts | 201° |
| 2026-05-07 13:19 | 47.22630 | 15.96623 | 35969 ft | 403 kts | 201° |
| 2026-05-07 13:20 | 47.17341 | 15.94008 | 35957 ft | 403 kts | 201° |
| 2026-05-07 13:20 | 47.12042 | 15.91405 | 35953 ft | 403 kts | 201° |
| 2026-05-07 13:21 | 47.06713 | 15.88797 | 35898 ft | 402 kts | 201° |
| 2026-05-07 13:21 | 47.01434 | 15.86223 | 35955 ft | 403 kts | 201° |
| 2026-05-07 13:22 | 46.96099 | 15.83626 | 35927 ft | 402 kts | 201° |
| 2026-05-07 13:22 | 46.90871 | 15.80973 | 35927 ft | 401 kts | 204° |
| 2026-05-07 13:23 | 46.85805 | 15.77641 | 35902 ft | 400 kts | 209° |
| 2026-05-07 13:23 | 46.80900 | 15.73751 | 35877 ft | 400 kts | 211° |
| 2026-05-07 13:24 | 46.76037 | 15.69891 | 35939 ft | 400 kts | 211° |
| 2026-05-07 13:24 | 46.71150 | 15.66005 | 35944 ft | 399 kts | 211° |
| 2026-05-07 13:25 | 46.66280 | 15.62133 | 35961 ft | 399 kts | 211° |
| 2026-05-07 13:25 | 46.61423 | 15.58277 | 35909 ft | 400 kts | 211° |
| 2026-05-07 13:26 | 46.59005 | 15.56363 | 36017 ft | 400 kts | 211° |
| 2026-05-07 13:26 | 46.56570 | 15.54435 | 35988 ft | 399 kts | 211° |
| 2026-05-07 13:26 | 46.51857 | 15.50253 | 35951 ft | 397 kts | 217° |
| 2026-05-07 13:27 | 46.47358 | 15.45620 | 35985 ft | 398 kts | 217° |
| 2026-05-07 13:27 | 46.42855 | 15.41005 | 35945 ft | 396 kts | 218° |
| 2026-05-07 13:28 | 46.38383 | 15.36421 | 35977 ft | 396 kts | 218° |
| 2026-05-07 13:28 | 46.33884 | 15.31811 | 35949 ft | 397 kts | 217° |
| 2026-05-07 13:29 | 46.29389 | 15.27215 | 35976 ft | 397 kts | 217° |
| 2026-05-07 13:29 | 46.24881 | 15.22613 | 35910 ft | 397 kts | 217° |
| 2026-05-07 13:30 | 46.20392 | 15.18040 | 35959 ft | 397 kts | 217° |
| 2026-05-07 13:30 | 46.15899 | 15.13475 | 35927 ft | 396 kts | 217° |
| 2026-05-07 13:31 | 46.11393 | 15.08903 | 35716 ft | 395 kts | 218° |
| 2026-05-07 13:31 | 46.09178 | 15.06659 | 35488 ft | 394 kts | 217° |
| 2026-05-07 13:31 | 46.06918 | 15.04371 | 35298 ft | 394 kts | 217° |